sensor_id;sensor_type;location;lat;lon;timestamp;pressure;altitude;pressure_sealevel;temperature;humidity
62952;BME280;52163;52.212;-1.002;2023-03-03T00:01:30;101766.77;;;4.17;78.41
62952;BME280;52163;52.212;-1.002;2023-03-03T00:03:57;101771.32;;;4.16;78.42
62952;BME280;52163;52.212;-1.002;2023-03-03T00:06:23;101769.92;;;4.15;78.39
62952;BME280;52163;52.212;-1.002;2023-03-03T00:08:50;101770.64;;;4.14;78.17
62952;BME280;52163;52.212;-1.002;2023-03-03T00:11:16;101774.52;;;4.12;78.18
62952;BME280;52163;52.212;-1.002;2023-03-03T00:13:50;101774.35;;;4.10;77.97
62952;BME280;52163;52.212;-1.002;2023-03-03T00:16:29;101778.95;;;4.07;78.27
62952;BME280;52163;52.212;-1.002;2023-03-03T00:18:56;101776.35;;;4.04;77.98
62952;BME280;52163;52.212;-1.002;2023-03-03T00:21:26;101775.34;;;4.01;78.27
62952;BME280;52163;52.212;-1.002;2023-03-03T00:24:19;101776.02;;;4.02;78.21
62952;BME280;52163;52.212;-1.002;2023-03-03T00:26:51;101776.74;;;4.02;78.01
62952;BME280;52163;52.212;-1.002;2023-03-03T00:29:26;101770.63;;;4.01;78.16
62952;BME280;52163;52.212;-1.002;2023-03-03T00:31:52;101775.00;;;4.01;78.41
62952;BME280;52163;52.212;-1.002;2023-03-03T00:36:45;101773.77;;;4.01;78.35
62952;BME280;52163;52.212;-1.002;2023-03-03T00:39:35;101773.27;;;4.00;78.38
62952;BME280;52163;52.212;-1.002;2023-03-03T00:42:01;101771.20;;;3.97;78.42
62952;BME280;52163;52.212;-1.002;2023-03-03T00:44:47;101770.35;;;3.96;78.58
62952;BME280;52163;52.212;-1.002;2023-03-03T00:49:39;101771.63;;;3.91;78.62
62952;BME280;52163;52.212;-1.002;2023-03-03T00:52:15;101766.92;;;3.90;78.79
62952;BME280;52163;52.212;-1.002;2023-03-03T00:54:41;101762.71;;;3.91;78.64
62952;BME280;52163;52.212;-1.002;2023-03-03T00:57:07;101761.83;;;3.92;78.99
62952;BME280;52163;52.212;-1.002;2023-03-03T00:59:32;101761.46;;;3.94;79.02
62952;BME280;52163;52.212;-1.002;2023-03-03T01:01:58;101760.59;;;3.93;78.89
62952;BME280;52163;52.212;-1.002;2023-03-03T01:04:23;101762.70;;;3.92;79.18
62952;BME280;52163;52.212;-1.002;2023-03-03T01:06:48;101760.61;;;3.91;78.84
62952;BME280;52163;52.212;-1.002;2023-03-03T01:09:14;101765.34;;;3.90;79.20
62952;BME280;52163;52.212;-1.002;2023-03-03T01:11:39;101760.48;;;3.88;79.25
62952;BME280;52163;52.212;-1.002;2023-03-03T01:14:05;101759.80;;;3.86;79.30
62952;BME280;52163;52.212;-1.002;2023-03-03T01:16:30;101761.56;;;3.86;79.25
62952;BME280;52163;52.212;-1.002;2023-03-03T01:18:57;101761.38;;;3.87;79.35
62952;BME280;52163;52.212;-1.002;2023-03-03T01:21:22;101764.51;;;3.88;79.52
62952;BME280;52163;52.212;-1.002;2023-03-03T01:23:48;101761.36;;;3.88;79.60
62952;BME280;52163;52.212;-1.002;2023-03-03T01:26:13;101762.77;;;3.87;79.66
62952;BME280;52163;52.212;-1.002;2023-03-03T01:28:39;101764.52;;;3.86;79.66
62952;BME280;52163;52.212;-1.002;2023-03-03T01:31:05;101764.52;;;3.84;79.64
62952;BME280;52163;52.212;-1.002;2023-03-03T01:33:34;101766.50;;;3.82;79.91
62952;BME280;52163;52.212;-1.002;2023-03-03T01:36:00;101766.35;;;3.79;79.82
62952;BME280;52163;52.212;-1.002;2023-03-03T01:38:25;101766.20;;;3.78;80.02
62952;BME280;52163;52.212;-1.002;2023-03-03T01:40:53;101772.84;;;3.77;79.76
62952;BME280;52163;52.212;-1.002;2023-03-03T01:43:18;101768.83;;;3.77;79.85
62952;BME280;52163;52.212;-1.002;2023-03-03T01:48:33;101770.91;;;3.79;79.65
62952;BME280;52163;52.212;-1.002;2023-03-03T01:51:03;101772.09;;;3.82;79.36
62952;BME280;52163;52.212;-1.002;2023-03-03T01:53:37;101774.18;;;3.82;79.25
62952;BME280;52163;52.212;-1.002;2023-03-03T01:56:07;101779.08;;;3.82;79.03
62952;BME280;52163;52.212;-1.002;2023-03-03T01:58:37;101778.73;;;3.82;78.66
62952;BME280;52163;52.212;-1.002;2023-03-03T02:01:11;101781.53;;;3.81;78.36
62952;BME280;52163;52.212;-1.002;2023-03-03T02:03:39;101777.52;;;3.81;78.33
62952;BME280;52163;52.212;-1.002;2023-03-03T02:06:07;101782.42;;;3.81;78.32
62952;BME280;52163;52.212;-1.002;2023-03-03T02:09:10;101781.38;;;3.80;78.35
62952;BME280;52163;52.212;-1.002;2023-03-03T02:11:39;101786.26;;;3.81;78.05
62952;BME280;52163;52.212;-1.002;2023-03-03T02:14:07;101787.48;;;3.82;77.98
62952;BME280;52163;52.212;-1.002;2023-03-03T02:16:33;101786.92;;;3.83;77.91
62952;BME280;52163;52.212;-1.002;2023-03-03T02:18:58;101785.67;;;3.85;77.78
62952;BME280;52163;52.212;-1.002;2023-03-03T02:21:24;101785.16;;;3.86;77.79
62952;BME280;52163;52.212;-1.002;2023-03-03T02:26:28;101791.61;;;3.86;77.98
62952;BME280;52163;52.212;-1.002;2023-03-03T02:28:54;101791.64;;;3.84;77.58
62952;BME280;52163;52.212;-1.002;2023-03-03T02:31:23;101789.58;;;3.82;77.57
62952;BME280;52163;52.212;-1.002;2023-03-03T02:33:50;101789.94;;;3.80;77.84
62952;BME280;52163;52.212;-1.002;2023-03-03T02:36:37;101792.08;;;3.76;77.81
62952;BME280;52163;52.212;-1.002;2023-03-03T02:39:05;101788.41;;;3.75;78.12
62952;BME280;52163;52.212;-1.002;2023-03-03T02:44:38;101782.43;;;3.80;78.18
62952;BME280;52163;52.212;-1.002;2023-03-03T02:47:04;101789.05;;;3.82;78.41
62952;BME280;52163;52.212;-1.002;2023-03-03T02:49:32;101784.33;;;3.83;78.49
62952;BME280;52163;52.212;-1.002;2023-03-03T02:51:58;101789.73;;;3.82;78.40
62952;BME280;52163;52.212;-1.002;2023-03-03T02:54:25;101788.52;;;3.82;78.37
62952;BME280;52163;52.212;-1.002;2023-03-03T02:56:52;101792.55;;;3.81;78.35
62952;BME280;52163;52.212;-1.002;2023-03-03T02:59:17;101791.68;;;3.81;78.49
62952;BME280;52163;52.212;-1.002;2023-03-03T03:01:43;101791.88;;;3.78;78.62
62952;BME280;52163;52.212;-1.002;2023-03-03T03:04:15;101790.85;;;3.77;78.70
62952;BME280;52163;52.212;-1.002;2023-03-03T03:06:42;101791.70;;;3.78;78.51
62952;BME280;52163;52.212;-1.002;2023-03-03T03:09:08;101790.65;;;3.79;79.18
62952;BME280;52163;52.212;-1.002;2023-03-03T03:11:34;101789.07;;;3.80;78.97
62952;BME280;52163;52.212;-1.002;2023-03-03T03:14:01;101787.66;;;3.80;78.71
62952;BME280;52163;52.212;-1.002;2023-03-03T03:16:27;101784.00;;;3.81;79.12
62952;BME280;52163;52.212;-1.002;2023-03-03T03:18:53;101783.83;;;3.80;79.06
62952;BME280;52163;52.212;-1.002;2023-03-03T03:21:19;101785.59;;;3.79;78.89
62952;BME280;52163;52.212;-1.002;2023-03-03T03:23:44;101787.52;;;3.78;79.18
62952;BME280;52163;52.212;-1.002;2023-03-03T03:26:10;101785.45;;;3.76;78.93
62952;BME280;52163;52.212;-1.002;2023-03-03T03:28:36;101789.83;;;3.74;79.04
62952;BME280;52163;52.212;-1.002;2023-03-03T03:31:03;101788.11;;;3.72;78.96
62952;BME280;52163;52.212;-1.002;2023-03-03T03:33:29;101787.59;;;3.72;79.00
62952;BME280;52163;52.212;-1.002;2023-03-03T03:35:56;101788.45;;;3.73;79.16
62952;BME280;52163;52.212;-1.002;2023-03-03T03:38:22;101790.02;;;3.74;79.10
62952;BME280;52163;52.212;-1.002;2023-03-03T03:40:48;101787.71;;;3.76;79.18
62952;BME280;52163;52.212;-1.002;2023-03-03T03:43:14;101782.64;;;3.76;79.03
62952;BME280;52163;52.212;-1.002;2023-03-03T03:45:43;101789.29;;;3.76;78.78
62952;BME280;52163;52.212;-1.002;2023-03-03T03:48:09;101782.16;;;3.73;78.96
62952;BME280;52163;52.212;-1.002;2023-03-03T03:50:35;101785.14;;;3.72;78.77
62952;BME280;52163;52.212;-1.002;2023-03-03T03:53:01;101783.40;;;3.72;79.06
62952;BME280;52163;52.212;-1.002;2023-03-03T03:55:27;101783.74;;;3.72;79.17
62952;BME280;52163;52.212;-1.002;2023-03-03T03:57:54;101782.89;;;3.71;79.16
62952;BME280;52163;52.212;-1.002;2023-03-03T04:00:20;101783.23;;;3.71;78.77
62952;BME280;52163;52.212;-1.002;2023-03-03T04:02:45;101780.62;;;3.70;79.09
62952;BME280;52163;52.212;-1.002;2023-03-03T04:05:10;101783.25;;;3.70;78.91
62952;BME280;52163;52.212;-1.002;2023-03-03T04:07:36;101785.33;;;3.71;79.22
62952;BME280;52163;52.212;-1.002;2023-03-03T04:10:02;101784.08;;;3.73;78.91
62952;BME280;52163;52.212;-1.002;2023-03-03T04:12:28;101784.95;;;3.73;78.97
62952;BME280;52163;52.212;-1.002;2023-03-03T04:14:53;101779.87;;;3.74;79.07
62952;BME280;52163;52.212;-1.002;2023-03-03T04:17:20;101781.23;;;3.76;79.09
62952;BME280;52163;52.212;-1.002;2023-03-03T04:19:46;101777.57;;;3.77;78.93
62952;BME280;52163;52.212;-1.002;2023-03-03T04:22:12;101780.38;;;3.76;79.03
62952;BME280;52163;52.212;-1.002;2023-03-03T04:24:40;101776.55;;;3.75;79.02
62952;BME280;52163;52.212;-1.002;2023-03-03T04:27:06;101775.70;;;3.72;78.95
62952;BME280;52163;52.212;-1.002;2023-03-03T04:29:33;101776.77;;;3.70;78.79
62952;BME280;52163;52.212;-1.002;2023-03-03T04:31:58;101776.96;;;3.69;79.03
62952;BME280;52163;52.212;-1.002;2023-03-03T04:34:25;101779.40;;;3.70;78.83
62952;BME280;52163;52.212;-1.002;2023-03-03T04:36:51;101776.95;;;3.71;79.27
62952;BME280;52163;52.212;-1.002;2023-03-03T04:39:16;101778.85;;;3.72;79.24
62952;BME280;52163;52.212;-1.002;2023-03-03T04:41:41;101779.00;;;3.74;79.26
62952;BME280;52163;52.212;-1.002;2023-03-03T04:44:07;101784.21;;;3.76;79.34
62952;BME280;52163;52.212;-1.002;2023-03-03T04:46:32;101783.35;;;3.76;79.64
62952;BME280;52163;52.212;-1.002;2023-03-03T04:48:58;101785.62;;;3.76;79.26
62952;BME280;52163;52.212;-1.002;2023-03-03T04:51:24;101786.50;;;3.75;79.37
62952;BME280;52163;52.212;-1.002;2023-03-03T04:53:49;101790.38;;;3.73;79.34
62952;BME280;52163;52.212;-1.002;2023-03-03T04:56:14;101788.48;;;3.71;79.39
62952;BME280;52163;52.212;-1.002;2023-03-03T04:58:40;101789.02;;;3.70;79.33
62952;BME280;52163;52.212;-1.002;2023-03-03T05:01:05;101788.33;;;3.68;79.47
62952;BME280;52163;52.212;-1.002;2023-03-03T05:03:31;101792.00;;;3.68;79.77
62952;BME280;52163;52.212;-1.002;2023-03-03T05:05:56;101794.98;;;3.68;79.58
62952;BME280;52163;52.212;-1.002;2023-03-03T05:08:22;101792.01;;;3.68;79.61
62952;BME280;52163;52.212;-1.002;2023-03-03T05:10:54;101789.73;;;3.69;79.54
62952;BME280;52163;52.212;-1.002;2023-03-03T05:13:19;101789.03;;;3.69;79.32
62952;BME280;52163;52.212;-1.002;2023-03-03T05:15:49;101790.44;;;3.68;79.56
62952;BME280;52163;52.212;-1.002;2023-03-03T05:18:17;101791.50;;;3.67;79.50
62952;BME280;52163;52.212;-1.002;2023-03-03T05:20:43;101791.88;;;3.65;79.32
62952;BME280;52163;52.212;-1.002;2023-03-03T05:23:08;101791.90;;;3.62;79.26
62952;BME280;52163;52.212;-1.002;2023-03-03T05:25:33;101791.20;;;3.60;79.49
62952;BME280;52163;52.212;-1.002;2023-03-03T05:27:59;101787.39;;;3.58;79.63
62952;BME280;52163;52.212;-1.002;2023-03-03T05:30:24;101788.98;;;3.57;79.46
62952;BME280;52163;52.212;-1.002;2023-03-03T05:32:49;101791.41;;;3.58;79.63
62952;BME280;52163;52.212;-1.002;2023-03-03T05:35:15;101791.91;;;3.59;79.90
62952;BME280;52163;52.212;-1.002;2023-03-03T05:37:41;101798.02;;;3.60;79.65
62952;BME280;52163;52.212;-1.002;2023-03-03T05:40:14;101798.02;;;3.59;79.86
62952;BME280;52163;52.212;-1.002;2023-03-03T05:42:40;101795.24;;;3.58;79.85
62952;BME280;52163;52.212;-1.002;2023-03-03T05:45:07;101796.48;;;3.57;79.39
62952;BME280;52163;52.212;-1.002;2023-03-03T05:47:32;101796.00;;;3.54;79.42
62952;BME280;52163;52.212;-1.002;2023-03-03T05:49:57;101798.10;;;3.53;79.84
62952;BME280;52163;52.212;-1.002;2023-03-03T05:52:23;101794.97;;;3.52;79.77
62952;BME280;52163;52.212;-1.002;2023-03-03T05:54:49;101798.13;;;3.50;79.99
62952;BME280;52163;52.212;-1.002;2023-03-03T05:57:14;101793.05;;;3.51;79.85
62952;BME280;52163;52.212;-1.002;2023-03-03T05:59:40;101799.50;;;3.53;79.97
62952;BME280;52163;52.212;-1.002;2023-03-03T06:02:05;101799.83;;;3.55;80.30
62952;BME280;52163;52.212;-1.002;2023-03-03T06:04:32;101798.07;;;3.56;80.07
62952;BME280;52163;52.212;-1.002;2023-03-03T06:06:57;101802.95;;;3.57;79.79
62952;BME280;52163;52.212;-1.002;2023-03-03T06:09:23;101801.73;;;3.55;79.44
62952;BME280;52163;52.212;-1.002;2023-03-03T06:11:48;101799.85;;;3.53;79.36
62952;BME280;52163;52.212;-1.002;2023-03-03T06:14:14;101800.55;;;3.53;79.38
62952;BME280;52163;52.212;-1.002;2023-03-03T06:16:39;101801.45;;;3.50;79.15
62952;BME280;52163;52.212;-1.002;2023-03-03T06:19:05;101805.66;;;3.48;78.87
62952;BME280;52163;52.212;-1.002;2023-03-03T06:21:30;101805.84;;;3.47;78.99
62952;BME280;52163;52.212;-1.002;2023-03-03T06:23:56;101809.15;;;3.48;78.82
62952;BME280;52163;52.212;-1.002;2023-03-03T06:26:21;101811.42;;;3.49;78.65
62952;BME280;52163;52.212;-1.002;2023-03-03T06:28:47;101809.65;;;3.50;78.49
62952;BME280;52163;52.212;-1.002;2023-03-03T06:31:14;101808.23;;;3.52;78.67
62952;BME280;52163;52.212;-1.002;2023-03-03T06:33:40;101808.58;;;3.53;78.39
62952;BME280;52163;52.212;-1.002;2023-03-03T06:36:07;101809.28;;;3.53;78.55
62952;BME280;52163;52.212;-1.002;2023-03-03T06:38:32;101808.95;;;3.52;78.28
62952;BME280;52163;52.212;-1.002;2023-03-03T06:40:57;101806.70;;;3.50;78.57
62952;BME280;52163;52.212;-1.002;2023-03-03T06:43:26;101809.69;;;3.48;78.31
62952;BME280;52163;52.212;-1.002;2023-03-03T06:45:51;101809.17;;;3.46;78.60
62952;BME280;52163;52.212;-1.002;2023-03-03T06:48:17;101807.80;;;3.45;78.73
62952;BME280;52163;52.212;-1.002;2023-03-03T06:50:42;101814.59;;;3.46;78.91
62952;BME280;52163;52.212;-1.002;2023-03-03T06:53:15;101816.31;;;3.49;79.03
62952;BME280;52163;52.212;-1.002;2023-03-03T06:55:42;101821.17;;;3.52;79.41
62952;BME280;52163;52.212;-1.002;2023-03-03T06:58:14;101817.67;;;3.52;80.00
62952;BME280;52163;52.212;-1.002;2023-03-03T07:00:42;101821.18;;;3.51;80.26
62952;BME280;52163;52.212;-1.002;2023-03-03T07:05:41;101832.64;;;3.41;81.27
62952;BME280;52163;52.212;-1.002;2023-03-03T07:08:15;101834.42;;;3.37;81.86
62952;BME280;52163;52.212;-1.002;2023-03-03T07:10:42;101838.30;;;3.34;82.33
62952;BME280;52163;52.212;-1.002;2023-03-03T07:13:26;101839.70;;;3.32;83.11
62952;BME280;52163;52.212;-1.002;2023-03-03T07:15:53;101845.48;;;3.31;83.90
62952;BME280;52163;52.212;-1.002;2023-03-03T07:20:49;101851.06;;;3.31;85.39
62952;BME280;52163;52.212;-1.002;2023-03-03T07:23:33;101854.35;;;3.33;85.60
62952;BME280;52163;52.212;-1.002;2023-03-03T07:26:09;101853.50;;;3.33;86.16
62952;BME280;52163;52.212;-1.002;2023-03-03T07:28:40;101855.44;;;3.31;86.47
62952;BME280;52163;52.212;-1.002;2023-03-03T07:31:19;101857.53;;;3.31;86.92
62952;BME280;52163;52.212;-1.002;2023-03-03T07:33:49;101858.23;;;3.30;86.78
62952;BME280;52163;52.212;-1.002;2023-03-03T07:36:33;101856.15;;;3.29;86.79
62952;BME280;52163;52.212;-1.002;2023-03-03T07:39:02;101859.64;;;3.30;87.06
62952;BME280;52163;52.212;-1.002;2023-03-03T07:41:30;101860.84;;;3.32;87.48
62952;BME280;52163;52.212;-1.002;2023-03-03T07:44:20;101863.59;;;3.36;87.76
62952;BME280;52163;52.212;-1.002;2023-03-03T07:46:48;101864.25;;;3.42;87.82
62952;BME280;52163;52.212;-1.002;2023-03-03T07:49:23;101867.70;;;3.47;87.49
62952;BME280;52163;52.212;-1.002;2023-03-03T07:51:56;101868.52;;;3.51;87.68
62952;BME280;52163;52.212;-1.002;2023-03-03T07:54:35;101872.69;;;3.54;87.64
62952;BME280;52163;52.212;-1.002;2023-03-03T07:59:46;101873.85;;;3.62;87.28
62952;BME280;52163;52.212;-1.002;2023-03-03T08:03:16;101877.66;;;3.66;87.39
62952;BME280;52163;52.212;-1.002;2023-03-03T08:05:39;101873.56;;;3.74;87.57
62952;BME280;52163;52.212;-1.002;2023-03-03T08:10:59;101880.72;;;3.92;87.29
62952;BME280;52163;52.212;-1.002;2023-03-03T08:13:36;101882.39;;;3.99;87.09
62952;BME280;52163;52.212;-1.002;2023-03-03T08:16:24;101883.89;;;4.05;86.67
62952;BME280;52163;52.212;-1.002;2023-03-03T08:18:56;101886.65;;;4.09;86.61
62952;BME280;52163;52.212;-1.002;2023-03-03T08:21:25;101889.93;;;4.14;85.98
62952;BME280;52163;52.212;-1.002;2023-03-03T08:23:51;101894.41;;;4.19;85.80
62952;BME280;52163;52.212;-1.002;2023-03-03T08:26:22;101891.89;;;4.25;85.53
62952;BME280;52163;52.212;-1.002;2023-03-03T08:28:49;101891.98;;;4.31;85.34
62952;BME280;52163;52.212;-1.002;2023-03-03T08:31:14;101891.71;;;4.40;85.09
62952;BME280;52163;52.212;-1.002;2023-03-03T08:33:42;101893.70;;;4.48;84.82
62952;BME280;52163;52.212;-1.002;2023-03-03T08:36:08;101895.02;;;4.54;84.72
62952;BME280;52163;52.212;-1.002;2023-03-03T08:38:34;101901.24;;;4.61;84.33
62952;BME280;52163;52.212;-1.002;2023-03-03T08:41:00;101900.86;;;4.63;83.94
62952;BME280;52163;52.212;-1.002;2023-03-03T08:43:25;101904.88;;;4.65;83.48
62952;BME280;52163;52.212;-1.002;2023-03-03T08:45:53;101906.58;;;4.68;82.99
62952;BME280;52163;52.212;-1.002;2023-03-03T08:48:19;101907.10;;;4.69;82.86
62952;BME280;52163;52.212;-1.002;2023-03-03T08:50:45;101906.51;;;4.74;82.81
62952;BME280;52163;52.212;-1.002;2023-03-03T08:53:12;101908.15;;;4.81;82.89
62952;BME280;52163;52.212;-1.002;2023-03-03T08:55:39;101908.95;;;4.87;82.96
62952;BME280;52163;52.212;-1.002;2023-03-03T08:58:05;101907.35;;;4.89;82.54
62952;BME280;52163;52.212;-1.002;2023-03-03T09:00:31;101911.55;;;4.89;82.31
62952;BME280;52163;52.212;-1.002;2023-03-03T09:02:56;101908.23;;;4.88;82.23
62952;BME280;52163;52.212;-1.002;2023-03-03T09:05:22;101909.07;;;4.90;82.30
62952;BME280;52163;52.212;-1.002;2023-03-03T09:07:49;101912.38;;;4.91;81.99
62952;BME280;52163;52.212;-1.002;2023-03-03T09:10:21;101911.64;;;4.94;81.68
62952;BME280;52163;52.212;-1.002;2023-03-03T09:12:52;101911.73;;;5.00;81.82
62952;BME280;52163;52.212;-1.002;2023-03-03T09:15:47;101916.87;;;5.08;81.55
62952;BME280;52163;52.212;-1.002;2023-03-03T09:18:35;101916.31;;;5.22;81.57
62952;BME280;52163;52.212;-1.002;2023-03-03T09:21:16;101915.48;;;5.30;81.21
62952;BME280;52163;52.212;-1.002;2023-03-03T09:23:48;101914.02;;;5.34;81.02
62952;BME280;52163;52.212;-1.002;2023-03-03T09:26:29;101917.55;;;5.33;80.88
62952;BME280;52163;52.212;-1.002;2023-03-03T09:29:10;101915.16;;;5.28;80.83
62952;BME280;52163;52.212;-1.002;2023-03-03T09:31:43;101914.61;;;5.30;80.79
62952;BME280;52163;52.212;-1.002;2023-03-03T09:36:44;101908.83;;;5.41;80.31
62952;BME280;52163;52.212;-1.002;2023-03-03T09:39:16;101906.92;;;5.49;79.86
62952;BME280;52163;52.212;-1.002;2023-03-03T09:53:10;101914.27;;;5.91;77.89
62952;BME280;52163;52.212;-1.002;2023-03-03T10:06:27;101923.66;;;6.07;77.10
62952;BME280;52163;52.212;-1.002;2023-03-03T10:19:38;101925.27;;;6.06;75.24
62952;BME280;52163;52.212;-1.002;2023-03-03T10:42:23;101930.04;;;6.04;73.91
62952;BME280;52163;52.212;-1.002;2023-03-03T10:50:52;101931.84;;;6.38;73.37
62952;BME280;52163;52.212;-1.002;2023-03-03T10:53:33;101929.70;;;6.57;72.78
62952;BME280;52163;52.212;-1.002;2023-03-03T10:57:12;101929.73;;;6.71;72.39
62952;BME280;52163;52.212;-1.002;2023-03-03T11:01:52;101939.34;;;6.65;71.76
62952;BME280;52163;52.212;-1.002;2023-03-03T11:09:35;101942.05;;;6.62;72.18
62952;BME280;52163;52.212;-1.002;2023-03-03T11:12:36;101947.69;;;6.69;71.78
62952;BME280;52163;52.212;-1.002;2023-03-03T11:18:09;101944.45;;;6.89;71.24
62952;BME280;52163;52.212;-1.002;2023-03-03T11:20:55;101946.88;;;6.99;70.70
62952;BME280;52163;52.212;-1.002;2023-03-03T11:29:12;101942.60;;;6.94;69.71
62952;BME280;52163;52.212;-1.002;2023-03-03T11:37:24;101953.58;;;6.74;69.45
62952;BME280;52163;52.212;-1.002;2023-03-03T11:39:49;101953.59;;;6.73;69.42
62952;BME280;52163;52.212;-1.002;2023-03-03T11:45:10;101947.98;;;7.05;69.91
62952;BME280;52163;52.212;-1.002;2023-03-03T11:50:15;101950.70;;;7.32;68.70
62952;BME280;52163;52.212;-1.002;2023-03-03T11:52:50;101953.56;;;7.37;68.59
62952;BME280;52163;52.212;-1.002;2023-03-03T11:55:28;101947.45;;;7.35;68.75
62952;BME280;52163;52.212;-1.002;2023-03-03T11:58:20;101948.41;;;7.32;68.36
62952;BME280;52163;52.212;-1.002;2023-03-03T12:01:03;101953.88;;;7.31;67.98
62952;BME280;52163;52.212;-1.002;2023-03-03T12:06:51;101953.41;;;7.21;66.81
62952;BME280;52163;52.212;-1.002;2023-03-03T12:09:38;101953.24;;;7.20;66.13
62952;BME280;52163;52.212;-1.002;2023-03-03T12:12:21;101951.76;;;7.24;65.70
62952;BME280;52163;52.212;-1.002;2023-03-03T12:28:53;101941.94;;;7.15;64.05
62952;BME280;52163;52.212;-1.002;2023-03-03T12:31:43;101940.46;;;7.11;64.10
62952;BME280;52163;52.212;-1.002;2023-03-03T12:34:34;101942.36;;;7.05;63.97
62952;BME280;52163;52.212;-1.002;2023-03-03T12:37:26;101940.67;;;7.02;63.84
62952;BME280;52163;52.212;-1.002;2023-03-03T12:40:11;101937.02;;;7.00;63.32
62952;BME280;52163;52.212;-1.002;2023-03-03T12:48:40;101931.60;;;7.14;62.98
62952;BME280;52163;52.212;-1.002;2023-03-03T12:54:43;101925.16;;;7.11;63.35
62952;BME280;52163;52.212;-1.002;2023-03-03T12:57:42;101925.44;;;7.08;63.70
62952;BME280;52163;52.212;-1.002;2023-03-03T13:06:26;101927.69;;;6.85;64.53
62952;BME280;52163;52.212;-1.002;2023-03-03T13:11:35;101926.12;;;6.60;65.13
62952;BME280;52163;52.212;-1.002;2023-03-03T13:19:57;101923.58;;;6.47;65.85
62952;BME280;52163;52.212;-1.002;2023-03-03T13:22:53;101922.62;;;6.51;66.03
62952;BME280;52163;52.212;-1.002;2023-03-03T13:25:29;101921.96;;;6.58;66.16
62952;BME280;52163;52.212;-1.002;2023-03-03T13:30:48;101913.02;;;6.65;66.12
62952;BME280;52163;52.212;-1.002;2023-03-03T13:33:25;101911.89;;;6.68;66.22
62952;BME280;52163;52.212;-1.002;2023-03-03T13:38:33;101907.39;;;6.65;65.99
62952;BME280;52163;52.212;-1.002;2023-03-03T13:43:35;101904.26;;;6.57;66.24
62952;BME280;52163;52.212;-1.002;2023-03-03T13:46:15;101900.45;;;6.54;66.46
62952;BME280;52163;52.212;-1.002;2023-03-03T13:52:10;101903.49;;;6.34;67.02
62952;BME280;52163;52.212;-1.002;2023-03-03T13:57:28;101900.48;;;6.17;67.78
62952;BME280;52163;52.212;-1.002;2023-03-03T14:02:55;101897.17;;;6.16;68.55
62952;BME280;52163;52.212;-1.002;2023-03-03T14:05:37;101894.05;;;6.23;68.58
62952;BME280;52163;52.212;-1.002;2023-03-03T14:13:48;101896.98;;;6.92;67.87
62952;BME280;52163;52.212;-1.002;2023-03-03T14:19:24;101892.80;;;7.27;67.06
62952;BME280;52163;52.212;-1.002;2023-03-03T14:24:22;101890.33;;;7.28;66.37
62952;BME280;52163;52.212;-1.002;2023-03-03T14:26:56;101894.73;;;7.20;65.95
62952;BME280;52163;52.212;-1.002;2023-03-03T14:31:47;101891.77;;;6.96;66.00
62952;BME280;52163;52.212;-1.002;2023-03-03T14:34:34;101894.72;;;6.83;66.19
62952;BME280;52163;52.212;-1.002;2023-03-03T14:37:28;101895.40;;;6.67;66.82
62952;BME280;52163;52.212;-1.002;2023-03-03T14:40:20;101891.69;;;6.61;67.49
62952;BME280;52163;52.212;-1.002;2023-03-03T14:47:56;101884.43;;;6.63;68.22
62952;BME280;52163;52.212;-1.002;2023-03-03T14:50:40;101884.85;;;6.68;68.48
62952;BME280;52163;52.212;-1.002;2023-03-03T14:53:30;101884.13;;;6.77;68.46
62952;BME280;52163;52.212;-1.002;2023-03-03T14:55:52;101882.70;;;6.86;68.09
62952;BME280;52163;52.212;-1.002;2023-03-03T14:58:25;101884.09;;;6.86;67.87
62952;BME280;52163;52.212;-1.002;2023-03-03T15:00:58;101885.23;;;6.83;67.65
62952;BME280;52163;52.212;-1.002;2023-03-03T15:03:30;101883.98;;;6.76;67.66
62952;BME280;52163;52.212;-1.002;2023-03-03T15:05:56;101888.39;;;6.67;67.53
62952;BME280;52163;52.212;-1.002;2023-03-03T15:08:41;101879.84;;;6.56;67.59
62952;BME280;52163;52.212;-1.002;2023-03-03T15:13:41;101877.58;;;6.38;68.23
62952;BME280;52163;52.212;-1.002;2023-03-03T15:16:11;101878.01;;;6.35;68.50
62952;BME280;52163;52.212;-1.002;2023-03-03T15:19:09;101877.76;;;6.30;68.69
62952;BME280;52163;52.212;-1.002;2023-03-03T15:21:54;101877.39;;;6.22;68.91
62952;BME280;52163;52.212;-1.002;2023-03-03T15:24:33;101868.65;;;6.21;69.10
62952;BME280;52163;52.212;-1.002;2023-03-03T15:27:20;101871.20;;;6.24;69.31
62952;BME280;52163;52.212;-1.002;2023-03-03T15:30:01;101868.69;;;6.28;69.40
62952;BME280;52163;52.212;-1.002;2023-03-03T15:32:40;101870.91;;;6.30;69.31
62952;BME280;52163;52.212;-1.002;2023-03-03T15:38:01;101859.04;;;6.35;68.80
62952;BME280;52163;52.212;-1.002;2023-03-03T15:43:34;101848.38;;;6.51;68.37
62952;BME280;52163;52.212;-1.002;2023-03-03T15:46:05;101847.08;;;6.61;67.85
62952;BME280;52163;52.212;-1.002;2023-03-03T15:48:45;101842.84;;;6.70;67.46
62952;BME280;52163;52.212;-1.002;2023-03-03T15:54:01;101838.80;;;6.78;66.15
62952;BME280;52163;52.212;-1.002;2023-03-03T15:56:55;101833.80;;;6.82;65.59
62952;BME280;52163;52.212;-1.002;2023-03-03T16:05:27;101833.50;;;6.93;64.77
62952;BME280;52163;52.212;-1.002;2023-03-03T16:08:17;101829.60;;;6.95;64.53
62952;BME280;52163;52.212;-1.002;2023-03-03T16:13:40;101835.11;;;6.85;64.02
62952;BME280;52163;52.212;-1.002;2023-03-03T16:16:12;101836.09;;;6.81;64.32
62952;BME280;52163;52.212;-1.002;2023-03-03T16:27:06;101837.02;;;6.72;64.52
62952;BME280;52163;52.212;-1.002;2023-03-03T16:35:24;101838.61;;;6.63;64.47
62952;BME280;52163;52.212;-1.002;2023-03-03T16:38:03;101839.74;;;6.60;64.65
62952;BME280;52163;52.212;-1.002;2023-03-03T16:40:53;101838.83;;;6.54;64.87
62952;BME280;52163;52.212;-1.002;2023-03-03T16:46:14;101839.85;;;6.46;65.29
62952;BME280;52163;52.212;-1.002;2023-03-03T16:48:56;101840.30;;;6.42;65.73
62952;BME280;52163;52.212;-1.002;2023-03-03T16:57:25;101843.77;;;6.27;66.46
62952;BME280;52163;52.212;-1.002;2023-03-03T17:00:11;101846.23;;;6.19;66.62
62952;BME280;52163;52.212;-1.002;2023-03-03T17:02:45;101847.38;;;6.15;66.88
62952;BME280;52163;52.212;-1.002;2023-03-03T17:05:43;101851.27;;;6.12;67.14